Archival Weather

Vermilion Rgnl

Danville, Illinois (KDNV)

Report from: Tuesday, March 26, 2024 1:15 AM CDT
Current time: Sunday, July 14, 2024 5:02 AM CDT

Current weather – Weather history – Daily summaries
Weather forecast

Temperature10.0°C (50.0°F)
Wind chill6.7°C (44.1°F)
Dew point9.0°C (48.2°F)
Winds 15 kts (7.7 m/s, 17.3 mph) Southeast (140°)
Visibility10 mi. (16.1 km)
Clouds Ceiling: Broken clouds 1,000 ft. (305 m)
Broken clouds 1,500 ft. (457 m)
Overcast 8,000 ft. (2,438 m)
Altimeter29.57 in.Hg (1001 mB)
Relative humidity94 %
Density altitude-29 ft. (-9 m)
Remarks Fully automated report
Automated weather observing station with precipitation discriminator
Flight conditions Marginal Visual Meteorological Conditions
Raw dataKDNV 260615Z AUTO 14015KT 10SM BKN010 BKN015 OVC080 10/09 A2957 RMK AO2 T01000090
An error has occurred. This application may no longer respond until reloaded. Reload 🗙